»·PEaware :: N261AB KSBA-L52

N261AB :: KSBA-L52

FLIGHT INFORMATION

Flight Status: Arrived
Operator: Privately registered:
United States
More flights under this callsign
Pilot: Brian K. (18535)
Aircraft: CESSNA 172 SKYHAWK
(C172)
More flights by this aircraft type
Origin: KSBA Santa Barbara Mun
United States
Destination: L52 Oceano Co
United States
More flights between these airports :: More routes between these airports
Route:
File this flight plan on PilotEdge
Remarks:
Altitude:
(Current/Filed)
6,500ft
Speed:
(Current/Filed)
0kts
Departed: 30-Dec-18 04:00 PM
Arrived: 30-Dec-18 04:40 PM
Distance/Time
Traveled:
56nm/0:39
Distance/Time
To Go:
Arrived

Flight Plot

Page will automatically refresh every two minutes.

Flight plan parsing failed; only flown route is shown


Map Options




Map Legend


Flown Route
Filed Route
Departure Airport
Arrival Airport
Navaid (VOR, NDB)
Fix

Horizontal Profiles

Position Reports

Time Latitude Longitude Heading Altitude Ground
Speed
30-Dec-18 15:48 34.432723 -119.835615 70 17ft 0kts
30-Dec-18 15:49 34.432723 -119.835615 70 17ft 0kts
30-Dec-18 15:50 34.432723 -119.835615 70 17ft 0kts
30-Dec-18 15:51 34.432723 -119.835615 70 17ft 0kts
30-Dec-18 15:52 34.432723 -119.835615 70 17ft 0kts
30-Dec-18 15:53 34.432502 -119.835466 167 17ft 0kts
30-Dec-18 15:54 34.432502 -119.835466 167 17ft 0kts
30-Dec-18 15:55 34.432502 -119.835466 167 17ft 0kts
30-Dec-18 15:55 34.431594 -119.835400 179 17ft 8kts
30-Dec-18 15:57 34.429355 -119.835248 172 17ft 0kts
30-Dec-18 15:57 34.428812 -119.834982 170 17ft 0kts
30-Dec-18 15:59 34.427816 -119.836171 268 17ft 40kts
30-Dec-18 16:00 34.427985 -119.862570 264 714ft 79kts
30-Dec-18 16:00 34.428159 -119.886264 263 1366ft 85kts
30-Dec-18 16:01 34.427515 -119.922669 267 1399ft 120kts
30-Dec-18 16:03 34.429138 -119.969321 268 1422ft 118kts
30-Dec-18 16:03 34.430336 -119.998929 266 2239ft 95kts
30-Dec-18 16:04 34.431699 -120.029194 269 3028ft 82kts
30-Dec-18 16:05 34.436627 -120.056298 312 3623ft 91kts
30-Dec-18 16:06 34.459936 -120.068097 325 4239ft 87kts
30-Dec-18 16:07 34.482463 -120.081703 324 4561ft 99kts
30-Dec-18 16:08 34.509094 -120.093230 335 4618ft 103kts
30-Dec-18 16:09 34.535556 -120.103094 331 4595ft 99kts
30-Dec-18 16:10 34.560950 -120.114444 333 4565ft 95kts
30-Dec-18 16:11 34.585456 -120.126986 333 4519ft 96kts
30-Dec-18 16:12 34.611338 -120.135672 330 4474ft 94kts
30-Dec-18 16:13 34.635261 -120.148660 331 4470ft 94kts
30-Dec-18 16:14 34.658850 -120.162033 330 4473ft 93kts
30-Dec-18 16:15 34.681484 -120.176631 326 4503ft 90kts
30-Dec-18 16:16 34.703314 -120.192612 328 4512ft 93kts
30-Dec-18 16:17 34.727418 -120.204496 334 4526ft 93kts
30-Dec-18 16:18 34.750885 -120.217712 328 4552ft 92kts
30-Dec-18 16:19 34.773724 -120.231815 329 4616ft 93kts
30-Dec-18 16:20 34.796896 -120.245513 327 4670ft 93kts
30-Dec-18 16:21 34.819786 -120.260931 327 4684ft 96kts
30-Dec-18 16:22 34.843224 -120.276078 328 4632ft 96kts
30-Dec-18 16:23 34.866304 -120.292047 330 4579ft 96kts
30-Dec-18 16:24 34.890294 -120.306483 326 4534ft 95kts
30-Dec-18 16:25 34.913188 -120.322997 327 4364ft 103kts
30-Dec-18 16:26 34.938419 -120.338926 324 3886ft 99kts
30-Dec-18 16:27 34.960793 -120.359351 321 3398ft 101kts
30-Dec-18 16:28 34.983388 -120.379419 313 3026ft 100kts
30-Dec-18 16:29 35.000123 -120.406129 292 2709ft 100kts
30-Dec-18 16:30 35.010206 -120.437550 291 2386ft 99kts
30-Dec-18 16:31 35.020887 -120.468142 295 2107ft 101kts
30-Dec-18 16:32 35.032500 -120.498288 301 2083ft 95kts
30-Dec-18 16:33 35.046447 -120.523224 307 1699ft 84kts
30-Dec-18 16:34 35.059412 -120.542807 301 1333ft 63kts
30-Dec-18 16:35 35.068382 -120.560903 302 1108ft 60kts
30-Dec-18 16:36 35.077750 -120.577801 302 960ft 60kts
30-Dec-18 16:37 35.085489 -120.592031 301 757ft 47kts
30-Dec-18 16:38 35.092480 -120.605444 304 323ft 46kts
30-Dec-18 16:39 35.098633 -120.616850 300 43ft 37kts
30-Dec-18 16:40 35.101876 -120.622280 19 18ft 9kts
30-Dec-18 16:41 35.102400 -120.623041 303 18ft 6kts
30-Dec-18 16:42 35.103297 -120.624322 37 18ft 0kts
30-Dec-18 16:43 35.103286 -120.624332 41 18ft 0kts
30-Dec-18 16:44 35.103286 -120.624332 41 18ft 0kts

Navigation Log

Ident Type
Flight plan parsing failed, navigation log unavailable